Time;durP1;ratioP1;P1;durP2;ratioP2;P2;SDS_P1;SDS_P2;PMS_P1;PMS_P2;Temp;Humidity;BMP_temperature;BMP_pressure;BME280_temperature;BME280_humidity;BME280_pressure;Samples;Min_cycle;Max_cycle;Signal;HPM_P1;HPM_P2
2021/12/15 00:00:17;;;;;;;16.17;9.55;;;9.20;99.90;;;;;;5023275;28;20083;-60
2021/12/15 00:02:44;;;;;;;18.45;9.68;;;9.20;99.90;;;;;;5034620;28;20462;-60
2021/12/15 00:05:11;;;;;;;18.80;8.88;;;9.10;99.90;;;;;;5021540;28;20022;-60
2021/12/15 00:07:37;;;;;;;20.27;9.20;;;9.10;99.90;;;;;;5015600;28;20022;-60
2021/12/15 00:10:05;;;;;;;17.73;9.23;;;9.10;99.90;;;;;;5015262;28;20034;-60
2021/12/15 00:12:31;;;;;;;19.77;10.73;;;9.10;99.90;;;;;;5016192;28;20040;-58
2021/12/15 00:14:57;;;;;;;26.80;9.82;;;9.00;99.90;;;;;;5014436;28;20113;-55
2021/12/15 00:17:23;;;;;;;20.42;9.52;;;8.90;99.90;;;;;;5014333;28;20033;-60
2021/12/15 00:19:50;;;;;;;17.45;9.05;;;8.80;99.90;;;;;;5014653;28;20026;-56
2021/12/15 00:22:16;;;;;;;19.27;9.00;;;8.70;99.90;;;;;;5014548;28;20036;-59
2021/12/15 00:24:42;;;;;;;19.20;9.77;;;8.70;99.90;;;;;;5015391;28;20526;-60
2021/12/15 00:27:08;;;;;;;21.05;10.48;;;8.60;99.90;;;;;;5014445;28;20080;-60
2021/12/15 00:29:34;;;;;;;22.10;11.15;;;8.60;99.90;;;;;;5014502;28;20113;-60
2021/12/15 00:32:04;;;;;;;25.17;11.43;;;8.60;99.90;;;;;;5014382;28;20045;-60
2021/12/15 00:34:32;;;;;;;31.13;12.95;;;8.50;99.90;;;;;;5013418;28;20179;-58
2021/12/15 00:36:58;;;;;;;19.15;10.35;;;8.50;99.90;;;;;;5013997;28;20030;-60
2021/12/15 00:39:23;;;;;;;25.45;11.75;;;8.60;99.90;;;;;;5013970;28;20368;-58
2021/12/15 00:41:50;;;;;;;22.45;10.27;;;8.50;99.90;;;;;;5013768;28;20022;-57
2021/12/15 00:44:16;;;;;;;22.13;10.68;;;8.50;99.90;;;;;;5015392;28;20104;-57
2021/12/15 00:46:43;;;;;;;23.70;10.95;;;8.50;99.90;;;;;;5029836;28;20120;-59
2021/12/15 00:49:09;;;;;;;24.50;10.45;;;8.50;99.90;;;;;;5033567;28;20025;-59
2021/12/15 00:51:38;;;;;;;25.42;11.40;;;8.40;99.90;;;;;;5033435;28;20026;-59
2021/12/15 00:54:05;;;;;;;27.48;11.13;;;8.40;99.90;;;;;;5034590;28;20025;-58
2021/12/15 00:56:32;;;;;;;27.60;13.02;;;8.40;99.90;;;;;;5034594;28;20025;-60
2021/12/15 00:59:11;;;;;;;32.42;13.13;;;8.30;99.90;;;;;;5034583;28;20056;-58
2021/12/15 01:01:39;;;;;;;28.40;12.88;;;8.30;99.90;;;;;;5034098;28;20029;-56
2021/12/15 01:04:06;;;;;;;24.70;10.82;;;8.20;99.90;;;;;;5033232;28;20079;-60
2021/12/15 01:06:32;;;;;;;24.55;10.15;;;8.30;99.90;;;;;;5034358;28;20044;-58
2021/12/15 01:09:02;;;;;;;22.42;10.48;;;8.30;99.90;;;;;;5033142;28;20025;-60
2021/12/15 01:19:52;;;;;;;19.77;9.63;;;8.40;99.90;;;;;;5034244;28;20032;-59
2021/12/15 01:22:32;;;;;;;28.77;10.75;;;8.30;99.90;;;;;;5034076;28;20034;-57
2021/12/15 01:25:07;;;;;;;16.58;9.05;;;8.20;99.90;;;;;;5034141;28;20045;-58
2021/12/15 01:27:33;;;;;;;20.15;9.70;;;8.20;99.90;;;;;;5032822;28;20030;-60
2021/12/15 01:29:59;;;;;;;23.75;9.68;;;8.30;99.90;;;;;;5034323;28;20037;-57
2021/12/15 01:32:25;;;;;;;22.10;10.48;;;8.40;99.90;;;;;;5032713;28;20027;-57
2021/12/15 01:34:51;;;;;;;20.92;9.80;;;8.50;99.90;;;;;;5033831;28;20041;-57
2021/12/15 01:37:17;;;;;;;24.05;9.73;;;8.50;99.90;;;;;;5032590;28;20021;-58
2021/12/15 01:39:43;;;;;;;18.17;9.13;;;8.50;99.90;;;;;;5032828;28;20021;-56
2021/12/15 01:42:09;;;;;;;23.85;9.00;;;8.50;99.90;;;;;;5033733;28;20025;-59
2021/12/15 01:47:21;;;;;;;24.05;11.27;;;8.40;99.90;;;;;;5033204;28;20071;-55
2021/12/15 01:49:51;;;;;;;21.35;10.40;;;8.30;99.90;;;;;;5032745;28;20431;-59
2021/12/15 01:52:24;;;;;;;25.75;10.15;;;8.30;99.90;;;;;;5032320;28;20055;-57
2021/12/15 01:54:56;;;;;;;23.58;10.43;;;8.10;99.90;;;;;;5032417;28;20032;-59
2021/12/15 01:57:26;;;;;;;23.25;10.38;;;7.90;99.90;;;;;;5033905;28;20476;-59
2021/12/15 01:59:53;;;;;;;24.10;10.77;;;7.90;99.90;;;;;;5032304;28;20033;-59
2021/12/15 02:02:20;;;;;;;23.90;10.35;;;7.90;99.90;;;;;;5032162;28;20026;-57
2021/12/15 02:04:47;;;;;;;26.42;10.95;;;7.90;99.90;;;;;;5032102;28;20494;-56
2021/12/15 02:07:16;;;;;;;26.73;11.18;;;7.90;99.90;;;;;;5033722;28;20025;-59
2021/12/15 02:12:24;;;;;;;21.95;10.60;;;7.90;99.90;;;;;;5033220;28;20018;-60
2021/12/15 02:14:51;;;;;;;27.42;10.88;;;7.90;99.90;;;;;;5033322;28;20097;-59
2021/12/15 02:17:17;;;;;;;26.30;10.80;;;7.80;99.90;;;;;;5033245;28;20036;-60
2021/12/15 02:19:43;;;;;;;26.27;10.27;;;7.80;99.90;;;;;;5033264;28;20068;-56
2021/12/15 02:22:09;;;;;;;28.75;10.80;;;7.70;99.90;;;;;;5033132;28;20033;-54
2021/12/15 02:24:36;;;;;;;24.40;10.82;;;7.80;99.90;;;;;;5032197;28;20089;-57
2021/12/15 02:27:04;;;;;;;26.10;10.57;;;7.80;99.90;;;;;;5032407;28;20360;-57
2021/12/15 02:29:35;;;;;;;24.83;11.77;;;7.80;99.90;;;;;;5032050;28;20088;-57
2021/12/15 02:37:03;;;;;;;27.30;10.68;;;7.80;99.90;;;;;;5033399;28;20026;-55
2021/12/15 02:37:41;;;;;;;24.73;11.50;;;7.80;99.90;;;;;;5032941;28;20476;-58
2021/12/15 02:40:11;;;;;;;20.23;9.98;;;7.80;99.90;;;;;;5031778;28;20116;-58
2021/12/15 02:42:45;;;;;;;25.60;10.70;;;7.80;99.90;;;;;;5031794;28;20030;-58
2021/12/15 02:45:13;;;;;;;26.08;11.50;;;7.90;99.90;;;;;;5031820;28;20033;-58
2021/12/15 02:47:40;;;;;;;25.23;11.35;;;7.90;99.90;;;;;;5031777;28;20017;-57
2021/12/15 02:50:11;;;;;;;26.88;11.13;;;7.90;99.90;;;;;;5033050;28;20089;-57
2021/12/15 02:53:06;;;;;;;26.60;10.83;;;7.70;99.90;;;;;;5031717;28;20026;-56
2021/12/15 02:55:31;;;;;;;27.52;12.02;;;7.60;99.90;;;;;;5032196;28;20072;-58
2021/12/15 02:57:57;;;;;;;28.88;11.60;;;7.60;99.90;;;;;;5034259;28;20021;-56
2021/12/15 03:00:28;;;;;;;28.40;11.95;;;7.60;99.90;;;;;;5035856;28;20029;-58
2021/12/15 03:05:51;;;;;;;28.10;12.15;;;7.70;99.90;;;;;;5036935;28;20384;-57
2021/12/15 03:08:25;;;;;;;25.60;10.02;;;7.80;99.90;;;;;;5037003;28;20140;-57
2021/12/15 03:16:24;;;;;;;25.50;11.52;;;8.20;99.90;;;;;;5036779;28;20029;-57
2021/12/15 03:18:50;;;;;;;22.23;10.27;;;8.20;99.90;;;;;;5035206;28;20026;-58
2021/12/15 03:21:21;;;;;;;28.05;11.18;;;8.30;99.90;;;;;;5035222;28;20027;-58
2021/12/15 03:24:11;;;;;;;23.77;11.35;;;8.40;99.90;;;;;;5036513;28;20025;-58
2021/12/15 03:26:45;;;;;;;25.52;11.25;;;8.40;99.90;;;;;;5035209;28;20029;-58
2021/12/15 03:37:29;;;;;;;26.08;11.75;;;8.30;99.90;;;;;;5036468;28;20026;-49
2021/12/15 03:40:04;;;;;;;25.17;11.15;;;8.20;99.90;;;;;;5034844;28;20517;-49
2021/12/15 03:42:40;;;;;;;23.08;10.98;;;8.10;99.90;;;;;;5034695;28;20108;-49
2021/12/15 03:45:10;;;;;;;25.83;11.55;;;8.10;99.90;;;;;;5036261;28;20113;-54
2021/12/15 03:47:39;;;;;;;26.73;11.90;;;8.00;99.90;;;;;;5036192;28;20025;-52
2021/12/15 03:50:08;;;;;;;26.65;11.82;;;8.00;99.90;;;;;;5034593;28;20021;-51
2021/12/15 03:52:34;;;;;;;23.80;10.40;;;8.00;99.90;;;;;;5034588;28;20025;-52
2021/12/15 03:55:00;;;;;;;26.17;10.70;;;7.90;99.90;;;;;;5034474;28;20053;-54
2021/12/15 03:57:26;;;;;;;27.23;10.95;;;8.00;99.90;;;;;;5034609;28;20436;-52
2021/12/15 03:59:53;;;;;;;22.65;10.38;;;8.10;99.90;;;;;;5035744;28;20033;-53
2021/12/15 04:02:20;;;;;;;26.52;10.15;;;8.20;99.90;;;;;;5035240;28;20026;-52
2021/12/15 04:04:47;;;;;;;21.85;9.93;;;8.20;99.90;;;;;;5035420;28;20049;-50
2021/12/15 04:07:15;;;;;;;24.98;10.98;;;8.20;99.90;;;;;;5034325;28;20021;-53
2021/12/15 04:09:42;;;;;;;28.95;11.45;;;8.20;99.90;;;;;;5034671;28;20492;-52
2021/12/15 04:12:08;;;;;;;24.48;10.95;;;8.10;99.90;;;;;;5034650;28;20037;-52
2021/12/15 04:14:43;;;;;;;24.17;11.02;;;8.00;99.90;;;;;;5034026;28;20026;-51
2021/12/15 04:17:26;;;;;;;25.67;11.52;;;7.90;99.90;;;;;;5034189;28;20064;-50
2021/12/15 04:19:54;;;;;;;26.10;12.15;;;7.90;99.90;;;;;;5035642;28;20083;-49
2021/12/15 04:22:20;;;;;;;28.10;12.25;;;8.00;99.90;;;;;;5034539;28;20025;-50
2021/12/15 04:24:45;;;;;;;29.80;12.10;;;8.00;99.90;;;;;;5035163;28;20075;-51
2021/12/15 04:27:11;;;;;;;26.48;12.13;;;8.00;99.90;;;;;;5035139;28;20108;-52
2021/12/15 04:29:38;;;;;;;29.85;12.05;;;7.90;99.90;;;;;;5034699;28;20026;-54
2021/12/15 04:32:09;;;;;;;33.50;13.93;;;7.90;99.90;;;;;;5035118;28;20018;-51
2021/12/15 04:34:35;;;;;;;34.50;13.17;;;7.70;99.90;;;;;;5033801;28;20128;-54
2021/12/15 04:37:01;;;;;;;29.33;12.57;;;7.70;99.90;;;;;;5033796;28;20351;-54
2021/12/15 04:39:28;;;;;;;33.58;14.35;;;7.60;99.90;;;;;;5034947;28;20513;-54
2021/12/15 04:41:56;;;;;;;36.58;13.93;;;7.60;99.90;;;;;;5035120;28;20032;-51
2021/12/15 04:44:27;;;;;;;36.78;14.80;;;7.50;99.90;;;;;;5034202;28;20116;-55
2021/12/15 04:47:10;;;;;;;41.35;14.52;;;7.70;99.90;;;;;;5033647;28;20057;-54
2021/12/15 04:49:41;;;;;;;35.35;14.57;;;7.60;99.90;;;;;;5033500;28;20024;-53
2021/12/15 04:52:08;;;;;;;;;;;7.50;99.90;;;;;;5033895;28;20030;-54
2021/12/15 04:54:33;;;;;;;37.20;12.38;;;7.50;99.90;;;;;;5034788;28;19905;-53
2021/12/15 04:57:01;;;;;;;33.22;13.55;;;7.50;99.90;;;;;;5033497;28;20033;-55
2021/12/15 04:59:27;;;;;;;33.95;14.00;;;7.50;99.90;;;;;;5033316;28;20021;-53
2021/12/15 05:01:53;;;;;;;39.35;14.30;;;7.50;99.90;;;;;;5033269;28;20028;-53
2021/12/15 05:04:18;;;;;;;35.30;13.60;;;7.50;99.90;;;;;;5033142;28;20029;-55
2021/12/15 05:06:44;;;;;;;28.27;12.73;;;7.60;99.90;;;;;;5034552;28;20025;-56
2021/12/15 05:09:10;;;;;;;28.83;12.38;;;7.60;99.90;;;;;;5034285;28;20017;-55
2021/12/15 05:11:36;;;;;;;29.15;12.52;;;7.70;99.90;;;;;;5034348;28;20075;-55
2021/12/15 05:14:03;;;;;;;27.80;11.10;;;7.70;99.90;;;;;;5034323;28;20026;-54
2021/12/15 05:16:28;;;;;;;25.35;11.70;;;7.70;99.90;;;;;;5034199;28;20028;-54
2021/12/15 05:18:54;;;;;;;28.40;12.35;;;7.70;99.90;;;;;;5033313;28;20017;-56
2021/12/15 05:21:22;;;;;;;29.40;12.02;;;7.70;99.90;;;;;;5034376;28;20025;-53
2021/12/15 05:23:54;;;;;;;31.02;12.55;;;7.70;99.90;;;;;;5034703;28;20388;-55
2021/12/15 05:26:20;;;;;;;30.70;12.95;;;7.70;99.90;;;;;;5034123;28;20029;-55
2021/12/15 05:28:46;;;;;;;33.65;14.25;;;7.70;99.90;;;;;;5034389;28;20488;-55
2021/12/15 05:31:11;;;;;;;34.00;12.90;;;7.60;99.90;;;;;;5032855;28;20048;-51
2021/12/15 05:33:37;;;;;;;37.85;14.90;;;7.60;99.90;;;;;;5033566;28;20026;-51
2021/12/15 05:36:03;;;;;;;36.00;14.55;;;7.60;99.90;;;;;;5033597;28;20341;-55
2021/12/15 05:38:29;;;;;;;39.28;14.90;;;7.60;99.90;;;;;;5032610;28;20025;-50
2021/12/15 05:40:57;;;;;;;35.45;14.02;;;7.60;99.90;;;;;;5033780;28;20032;-51
2021/12/15 05:43:23;;;;;;;34.72;13.88;;;7.60;99.90;;;;;;5032432;28;20029;-52
2021/12/15 05:45:50;;;;;;;36.78;14.13;;;7.50;99.90;;;;;;5033776;28;20030;-48
2021/12/15 05:48:16;;;;;;;40.17;16.73;;;7.40;99.90;;;;;;5033809;28;20044;-50
2021/12/15 05:50:43;;;;;;;37.25;16.52;;;7.50;99.90;;;;;;5033974;28;20021;-48
2021/12/15 05:53:09;;;;;;;38.25;15.82;;;7.50;99.90;;;;;;5033596;28;20022;-51
2021/12/15 05:55:36;;;;;;;30.60;13.63;;;7.40;99.90;;;;;;5033561;28;20024;-49
2021/12/15 05:58:04;;;;;;;42.92;14.05;;;7.30;99.90;;;;;;5032300;28;20026;-50
2021/12/15 06:00:32;;;;;;;36.38;14.07;;;7.30;99.90;;;;;;5032533;28;20057;-53
2021/12/15 06:03:04;;;;;;;37.97;14.07;;;7.20;99.90;;;;;;5032175;28;20546;-50
2021/12/15 06:05:31;;;;;;;37.33;14.73;;;7.20;99.90;;;;;;5032155;28;20117;-51
2021/12/15 06:07:56;;;;;;;35.25;13.82;;;7.20;99.90;;;;;;5032203;28;20022;-51
2021/12/15 06:10:26;;;;;;;36.45;14.25;;;7.10;99.90;;;;;;5033457;28;20037;-50
2021/12/15 06:12:52;;;;;;;32.88;14.40;;;7.20;99.90;;;;;;5032109;28;20039;-50
2021/12/15 06:15:22;;;;;;;35.40;15.35;;;7.30;99.90;;;;;;5032619;28;20033;-53
2021/12/15 06:17:56;;;;;;;27.40;12.50;;;7.30;99.90;;;;;;5032882;28;20030;-54
2021/12/15 06:20:22;;;;;;;36.42;13.80;;;7.40;99.90;;;;;;5033575;28;20033;-55
2021/12/15 06:22:47;;;;;;;36.88;15.50;;;7.60;99.90;;;;;;5033376;28;20022;-53
2021/12/15 06:25:14;;;;;;;33.78;13.90;;;7.60;99.90;;;;;;5032248;28;20041;-55
2021/12/15 06:27:40;;;;;;;31.92;13.25;;;7.60;99.90;;;;;;5033292;28;20026;-55
2021/12/15 06:30:08;;;;;;;33.90;14.00;;;7.70;99.90;;;;;;5032972;28;20022;-55
2021/12/15 06:32:34;;;;;;;36.78;14.27;;;7.80;99.90;;;;;;5034936;28;20029;-54
2021/12/15 06:35:00;;;;;;;39.17;15.75;;;7.80;99.90;;;;;;5036297;28;20026;-53
2021/12/15 06:37:26;;;;;;;36.15;13.93;;;7.70;99.90;;;;;;5037261;28;20159;-51
2021/12/15 06:39:51;;;;;;;35.90;13.77;;;7.70;99.90;;;;;;5036829;28;20026;-55
2021/12/15 06:42:17;;;;;;;40.35;14.63;;;7.60;99.90;;;;;;5037107;28;20029;-53
2021/12/15 06:44:43;;;;;;;38.88;15.32;;;7.60;99.90;;;;;;5035798;28;20026;-54
2021/12/15 06:58:24;;;;;;;39.38;14.52;;;7.50;99.90;;;;;;5037426;28;20040;-50
2021/12/15 07:01:15;;;;;;;41.30;16.40;;;7.40;99.90;;;;;;5034048;28;20018;-53
2021/12/15 07:03:41;;;;;;;34.05;14.13;;;7.30;99.90;;;;;;5017021;28;20018;-53
2021/12/15 07:06:08;;;;;;;38.75;15.27;;;7.20;99.90;;;;;;5016894;28;20025;-54
2021/12/15 07:08:36;;;;;;;38.28;16.50;;;7.30;99.90;;;;;;5016972;28;20030;-52
2021/12/15 07:11:02;;;;;;;39.40;15.18;;;7.20;99.90;;;;;;5016312;28;20022;-52
2021/12/15 07:13:28;;;;;;;36.25;14.65;;;7.30;99.90;;;;;;5015570;28;20033;-52
2021/12/15 07:16:00;;;;;;;34.15;14.43;;;7.30;99.90;;;;;;5015528;28;20112;-54
2021/12/15 07:18:37;;;;;;;39.75;15.82;;;7.40;99.90;;;;;;5015536;28;20025;-54
2021/12/15 07:21:11;;;;;;;38.85;15.02;;;7.50;99.90;;;;;;5015571;28;20030;-55
2021/12/15 07:23:37;;;;;;;35.30;14.30;;;7.60;99.90;;;;;;5015422;28;20041;-54
2021/12/15 07:26:04;;;;;;;34.53;14.38;;;7.60;99.90;;;;;;5015564;28;20033;-54
2021/12/15 07:28:30;;;;;;;32.97;13.98;;;7.60;99.90;;;;;;5015323;28;20025;-55
2021/12/15 07:30:56;;;;;;;39.78;13.93;;;7.60;99.90;;;;;;5015350;28;20089;-54
2021/12/15 07:33:23;;;;;;;38.58;14.73;;;7.60;99.90;;;;;;5016321;28;20165;-56
2021/12/15 07:35:48;;;;;;;33.60;14.15;;;7.60;99.90;;;;;;5015431;28;20029;-55
2021/12/15 07:38:14;;;;;;;31.83;13.18;;;7.70;99.90;;;;;;5015164;28;20030;-52
2021/12/15 07:40:40;;;;;;;35.80;15.13;;;7.70;99.90;;;;;;5015930;28;20026;-55
2021/12/15 07:43:11;;;;;;;40.53;16.45;;;7.80;99.90;;;;;;5015496;28;20026;-55
2021/12/15 07:45:44;;;;;;;41.92;14.65;;;7.80;99.90;;;;;;5015740;28;20068;-53
2021/12/15 07:48:13;;;;;;;37.35;14.23;;;7.70;99.90;;;;;;5016124;28;20025;-52
2021/12/15 07:50:41;;;;;;;46.50;16.35;;;7.60;99.90;;;;;;5014834;28;20028;-55
2021/12/15 07:53:07;;;;;;;44.20;16.85;;;7.50;99.90;;;;;;5016076;28;20033;-52
2021/12/15 07:55:33;;;;;;;43.63;15.90;;;7.50;99.90;;;;;;5015702;28;20030;-53
2021/12/15 07:58:00;;;;;;;45.53;17.77;;;7.50;99.90;;;;;;5014785;28;20050;-54
2021/12/15 08:00:26;;;;;;;44.10;16.05;;;7.50;99.90;;;;;;5014580;28;20030;-55
2021/12/15 08:02:52;;;;;;;41.10;16.05;;;7.50;99.90;;;;;;5014552;28;20030;-54
2021/12/15 08:05:18;;;;;;;43.50;15.88;;;7.50;99.90;;;;;;5014599;28;20076;-54
2021/12/15 08:07:44;;;;;;;42.65;15.88;;;7.50;99.90;;;;;;5014997;28;20026;-55
2021/12/15 08:10:11;;;;;;;40.45;16.15;;;7.50;99.90;;;;;;5015960;28;20073;-55
2021/12/15 08:12:39;;;;;;;36.25;14.55;;;7.50;99.90;;;;;;5014574;28;20033;-49
2021/12/15 08:15:07;;;;;;;37.60;15.57;;;7.50;99.90;;;;;;5014494;28;20041;-55
2021/12/15 08:17:34;;;;;;;38.22;15.10;;;7.40;99.90;;;;;;5015649;28;20381;-53
2021/12/15 08:20:00;;;;;;;34.50;15.27;;;7.50;99.90;;;;;;5015565;28;20097;-52
2021/12/15 08:22:25;;;;;;;37.83;14.82;;;7.50;99.90;;;;;;5014173;28;20173;-55
2021/12/15 08:24:51;;;;;;;27.92;12.40;;;7.50;99.90;;;;;;5015635;28;20076;-52
2021/12/15 08:27:16;;;;;;;31.05;13.15;;;7.50;99.90;;;;;;5014170;28;20072;-54
2021/12/15 08:29:42;;;;;;;31.90;13.07;;;7.70;99.90;;;;;;5015223;28;20025;-50
2021/12/15 08:32:08;;;;;;;36.25;14.40;;;7.80;99.90;;;;;;5014400;28;20072;-51
2021/12/15 08:34:33;;;;;;;27.30;12.65;;;8.30;99.90;;;;;;5013943;28;20034;-52
2021/12/15 08:36:59;;;;;;;26.77;13.05;;;8.60;99.90;;;;;;5014047;28;20124;-52
2021/12/15 08:39:25;;;;;;;32.97;13.65;;;8.60;99.90;;;;;;5015060;28;20032;-53
2021/12/15 08:41:51;;;;;;;33.83;13.70;;;8.50;99.90;;;;;;5015013;28;20030;-51
2021/12/15 08:47:39;;;;;;;32.15;13.95;;;8.50;99.90;;;;;;5024789;28;20156;-54
2021/12/15 08:50:08;;;;;;;37.50;14.98;;;8.60;99.90;;;;;;5033426;28;20025;-50
2021/12/15 08:52:34;;;;;;;42.17;16.63;;;8.40;99.90;;;;;;5014812;28;20022;-49
2021/12/15 08:55:00;;;;;;;39.38;15.13;;;8.10;99.90;;;;;;5013800;28;20032;-50
2021/12/15 08:57:25;;;;;;;36.28;15.80;;;8.10;99.90;;;;;;5015152;28;20030;-53
2021/12/15 08:59:51;;;;;;;35.88;13.73;;;8.20;99.90;;;;;;5014746;28;20022;-55
2021/12/15 09:02:17;;;;;;;38.25;16.00;;;8.30;99.90;;;;;;5027234;28;20041;-55
2021/12/15 09:04:43;;;;;;;38.10;15.50;;;8.30;99.90;;;;;;5034272;28;20021;-49
2021/12/15 09:07:08;;;;;;;32.50;14.60;;;8.30;99.90;;;;;;5034361;28;20040;-50
2021/12/15 09:09:35;;;;;;;36.17;14.80;;;8.40;99.90;;;;;;5034334;28;20029;-51
2021/12/15 09:12:25;;;;;;;30.48;13.80;;;8.60;99.90;;;;;;5033297;28;20025;-51
2021/12/15 09:14:51;;;;;;;33.63;13.70;;;8.70;99.90;;;;;;5034100;28;20029;-52
2021/12/15 09:17:17;;;;;;;35.90;14.57;;;8.70;99.90;;;;;;5034129;28;20025;-54
2021/12/15 09:19:52;;;;;;;32.42;14.23;;;8.70;99.90;;;;;;5033403;28;20022;-51
2021/12/15 09:22:40;;;;;;;38.05;15.82;;;8.60;99.90;;;;;;5022579;28;20473;-53
2021/12/15 09:25:09;;;;;;;35.42;16.00;;;8.50;99.90;;;;;;5014642;28;20017;-52
2021/12/15 09:27:35;;;;;;;36.75;16.60;;;8.50;99.90;;;;;;5013209;28;20022;-54
2021/12/15 09:30:04;;;;;;;36.78;15.07;;;8.40;99.90;;;;;;5013187;28;20022;-55
2021/12/15 09:32:29;;;;;;;34.20;14.30;;;8.60;99.90;;;;;;5013161;28;20120;-56
2021/12/15 09:34:55;;;;;;;33.97;15.77;;;8.90;99.90;;;;;;5013856;28;20445;-54
2021/12/15 09:37:21;;;;;;;38.33;15.73;;;8.90;99.90;;;;;;5013106;28;20026;-52
2021/12/15 09:39:47;;;;;;;32.95;16.08;;;8.70;99.90;;;;;;5013938;28;20026;-59
2021/12/15 09:42:18;;;;;;;36.63;15.75;;;8.70;99.90;;;;;;5012781;28;20026;-60
2021/12/15 09:44:44;;;;;;;31.75;14.98;;;8.70;99.90;;;;;;5014711;28;20048;-57
2021/12/15 10:04:11;;;;;;;31.67;14.23;;;9.90;99.90;;;;;;5029080;28;20033;-58
2021/12/15 10:11:47;;;;;;;28.10;13.35;;;9.70;99.90;;;;;;5033764;28;20048;-59
2021/12/15 10:19:56;;;;;;;37.95;16.17;;;9.40;99.90;;;;;;5013852;28;20152;-57
2021/12/15 10:22:44;;;;;;;34.30;15.43;;;9.60;99.90;;;;;;5012949;28;20076;-59
2021/12/15 10:25:49;;;;;;;31.23;14.35;;;9.80;99.90;;;;;;5012714;28;20026;-59
2021/12/15 10:28:22;;;;;;;36.42;14.90;;;9.80;99.90;;;;;;5013888;28;20030;-58
2021/12/15 10:31:11;;;;;;;33.75;14.57;;;9.70;99.90;;;;;;5013849;28;20050;-59
2021/12/15 10:34:05;;;;;;;33.47;14.05;;;9.80;99.90;;;;;;5013034;28;20049;-56
2021/12/15 10:36:33;;;;;;;31.33;14.85;;;9.90;99.90;;;;;;5012578;28;20032;-61
2021/12/15 10:39:04;;;;;;;35.67;16.20;;;9.50;99.90;;;;;;5013221;28;20048;-59
2021/12/15 10:41:42;;;;;;;37.10;15.45;;;9.10;99.90;;;;;;5012356;28;20076;-58
2021/12/15 10:44:16;;;;;;;36.13;16.00;;;9.00;99.90;;;;;;5014181;28;20041;-59
2021/12/15 10:46:52;;;;;;;41.00;17.00;;;9.00;99.90;;;;;;5012994;28;20045;-58
2021/12/15 10:49:29;;;;;;;35.33;16.30;;;8.90;99.90;;;;;;5013343;28;20022;-60
2021/12/15 10:52:01;;;;;;;36.80;16.73;;;8.80;99.90;;;;;;5012952;28;20445;-60
2021/12/15 10:54:37;;;;;;;40.03;17.10;;;8.70;99.90;;;;;;5012279;28;20049;-59
2021/12/15 10:57:07;;;;;;;37.33;16.63;;;8.60;99.90;;;;;;5012151;28;20018;-57
2021/12/15 10:59:53;;;;;;;44.08;17.45;;;8.60;99.90;;;;;;5021159;28;20092;-59
2021/12/15 11:02:32;;;;;;;33.40;15.38;;;8.70;99.90;;;;;;5040264;28;20099;-59
2021/12/15 11:05:06;;;;;;;41.05;17.02;;;8.80;99.90;;;;;;5047107;28;20049;-58
2021/12/15 11:07:44;;;;;;;35.22;16.00;;;8.90;99.90;;;;;;5052031;28;20033;-58
2021/12/15 11:10:17;;;;;;;41.13;15.35;;;8.90;99.90;;;;;;5053053;28;20100;-57
2021/12/15 11:12:49;;;;;;;39.97;17.50;;;8.80;99.90;;;;;;5052919;28;20017;-59
2021/12/15 11:15:40;;;;;;;37.92;16.23;;;8.80;99.90;;;;;;5051478;28;20059;-55
2021/12/15 11:18:18;;;;;;;41.78;18.90;;;8.70;99.90;;;;;;5053965;28;20025;-59
2021/12/15 11:20:50;;;;;;;43.63;17.58;;;8.70;99.90;;;;;;5055633;28;20021;-58
2021/12/15 11:23:16;;;;;;;;;;;8.80;99.90;;;;;;5056291;28;20115;-57
2021/12/15 11:25:42;;;;;;;44.08;16.33;;;8.90;99.90;;;;;;5056051;28;19915;-59
2021/12/15 11:28:14;;;;;;;39.53;16.85;;;8.90;99.90;;;;;;5056612;28;20017;-60
2021/12/15 11:31:15;;;;;;;37.25;17.05;;;9.00;99.90;;;;;;5055298;28;20020;-58
2021/12/15 11:33:50;;;;;;;38.15;15.70;;;8.90;99.90;;;;;;5056900;28;20048;-60
2021/12/15 11:36:26;;;;;;;34.75;15.68;;;9.10;99.90;;;;;;5056924;28;20029;-60
2021/12/15 11:39:09;;;;;;;34.55;15.20;;;9.20;99.90;;;;;;5055803;28;20427;-61
2021/12/15 11:41:52;;;;;;;35.08;14.93;;;9.30;99.90;;;;;;5056508;28;20032;-59
2021/12/15 11:44:25;;;;;;;39.83;15.50;;;9.40;99.90;;;;;;5056444;28;20021;-59
2021/12/15 11:46:54;;;;;;;44.60;15.73;;;9.30;99.90;;;;;;5055235;28;20139;-58
2021/12/15 11:49:26;;;;;;;50.05;20.25;;;9.20;99.90;;;;;;5054816;28;20570;-59
2021/12/15 11:52:14;;;;;;;38.25;15.70;;;9.40;99.90;;;;;;5056221;28;20021;-58
2021/12/15 11:54:48;;;;;;;41.42;17.25;;;9.40;99.90;;;;;;5056086;28;20075;-59
2021/12/15 11:57:22;;;;;;;38.00;15.48;;;9.40;99.90;;;;;;5055009;28;20017;-59
2021/12/15 11:59:55;;;;;;;43.05;17.38;;;9.20;99.90;;;;;;5056138;28;20053;-59
2021/12/15 12:02:27;;;;;;;44.20;18.00;;;9.20;99.90;;;;;;5055862;28;20083;-60
2021/12/15 12:04:57;;;;;;;39.38;16.75;;;9.20;99.90;;;;;;5043712;28;20022;-57
2021/12/15 12:07:42;;;;;;;44.10;18.02;;;9.30;99.90;;;;;;5034538;28;20048;-58
2021/12/15 12:10:48;;;;;;;37.47;16.70;;;9.30;99.90;;;;;;5034826;28;20052;-60
2021/12/15 12:13:26;;;;;;;37.03;16.73;;;9.40;99.90;;;;;;5034541;28;20083;-58
2021/12/15 12:15:56;;;;;;;40.75;16.60;;;9.40;99.90;;;;;;5018820;28;20030;-56
2021/12/15 12:18:24;;;;;;;34.85;15.23;;;9.30;99.90;;;;;;5015486;28;20165;-58
2021/12/15 12:20:56;;;;;;;37.60;15.93;;;9.30;99.90;;;;;;5015689;28;20037;-57
2021/12/15 12:23:25;;;;;;;38.33;17.27;;;9.30;99.90;;;;;;5015827;28;20096;-59
2021/12/15 12:25:55;;;;;;;34.53;14.98;;;9.20;99.90;;;;;;5015645;28;20127;-58
2021/12/15 12:28:26;;;;;;;28.40;13.60;;;9.20;99.90;;;;;;5016320;28;20048;-59
2021/12/15 12:31:10;;;;;;;33.63;14.98;;;9.50;99.90;;;;;;5015279;28;20026;-57
2021/12/15 12:33:36;;;;;;;33.40;14.95;;;9.60;99.90;;;;;;5015326;28;20041;-57
2021/12/15 12:36:07;;;;;;;31.75;15.50;;;9.60;99.90;;;;;;5014574;28;20030;-57
2021/12/15 12:38:37;;;;;;;30.05;14.55;;;9.60;99.90;;;;;;5015366;28;20029;-58
2021/12/15 12:41:14;;;;;;;34.00;15.27;;;9.70;99.90;;;;;;5015964;28;20057;-59
2021/12/15 12:47:10;;;;;;;34.95;15.20;;;9.50;99.90;;;;;;5035755;28;20044;-58
2021/12/15 12:59:21;;;;;;;32.45;14.20;;;9.50;99.90;;;;;;5034851;28;20557;-58
2021/12/15 13:00:51;;;;;;;33.90;14.10;;;9.50;99.90;;;;;;5034407;28;20025;-52
2021/12/15 13:06:42;;;;;;;30.55;14.75;;;9.60;99.90;;;;;;5035478;28;20064;-59
2021/12/15 13:09:11;;;;;;;30.50;14.13;;;9.60;99.90;;;;;;5033558;28;20021;-59
2021/12/15 13:11:39;;;;;;;31.67;13.77;;;9.60;99.90;;;;;;5034643;28;20049;-59
2021/12/15 13:14:13;;;;;;;31.02;13.10;;;9.60;99.90;;;;;;5034357;28;20068;-59
2021/12/15 13:16:54;;;;;;;32.00;14.38;;;9.60;99.90;;;;;;5034941;28;20021;-59
2021/12/15 13:19:31;;;;;;;27.55;12.80;;;9.60;99.90;;;;;;5034980;28;20028;-59
2021/12/15 13:30:39;;;;;;;30.90;13.57;;;9.80;99.90;;;;;;5034540;28;20060;-58
2021/12/15 13:33:15;;;;;;;28.23;11.90;;;9.80;99.90;;;;;;5034869;28;20029;-59
2021/12/15 13:35:52;;;;;;;29.35;13.98;;;9.80;99.90;;;;;;5034858;28;20075;-56
2021/12/15 13:38:22;;;;;;;29.30;13.20;;;9.70;99.90;;;;;;5034007;28;20026;-58
2021/12/15 13:40:53;;;;;;;25.80;11.93;;;9.80;99.90;;;;;;5033226;28;20108;-58
2021/12/15 13:43:36;;;;;;;29.55;13.25;;;9.90;99.90;;;;;;5034516;28;20057;-59
2021/12/15 13:49:32;;;;;;;33.60;14.60;;;10.00;99.90;;;;;;5034529;28;20037;-57
2021/12/15 13:52:09;;;;;;;31.85;13.95;;;9.80;99.90;;;;;;5033990;28;20030;-59
2021/12/15 13:54:35;;;;;;;28.75;13.95;;;9.70;99.90;;;;;;5034090;28;20026;-57
2021/12/15 13:57:03;;;;;;;30.05;14.25;;;9.60;99.90;;;;;;5034351;28;20025;-58
2021/12/15 13:59:33;;;;;;;35.20;14.88;;;9.70;99.90;;;;;;5033013;28;20018;-59
2021/12/15 14:02:35;;;;;;;27.23;12.63;;;9.60;99.90;;;;;;5032399;28;20068;-57
2021/12/15 14:05:07;;;;;;;37.58;14.48;;;9.50;99.90;;;;;;4967477;28;20030;-59
2021/12/15 14:07:39;;;;;;;33.33;14.02;;;9.40;99.90;;;;;;5033090;28;20025;-57
2021/12/15 14:10:11;;;;;;;33.83;13.68;;;9.40;99.90;;;;;;5034677;28;20021;-56
2021/12/15 14:12:45;;;;;;;45.13;17.30;;;9.40;99.90;;;;;;5034134;28;20033;-55
2021/12/15 14:15:25;;;;;;;35.10;15.13;;;9.50;99.90;;;;;;5033125;28;20025;-59
2021/12/15 14:17:57;;;;;;;30.85;13.73;;;9.50;99.90;;;;;;5033272;28;20044;-59
2021/12/15 14:20:22;;;;;;;29.77;14.07;;;9.50;99.90;;;;;;5033223;28;20021;-59
2021/12/15 14:22:57;;;;;;;34.70;15.48;;;9.60;99.90;;;;;;5032837;28;20029;-59
2021/12/15 14:25:23;;;;;;;30.58;14.90;;;9.50;99.90;;;;;;5033633;28;20476;-59
2021/12/15 14:27:49;;;;;;;38.30;16.70;;;9.50;99.90;;;;;;5032683;28;20028;-59
2021/12/15 14:30:14;;;;;;;39.78;16.85;;;9.50;99.90;;;;;;5032997;28;20075;-59
2021/12/15 14:32:40;;;;;;;33.92;14.70;;;9.40;99.90;;;;;;5033073;28;20045;-59
2021/12/15 14:35:17;;;;;;;36.90;16.38;;;9.40;99.90;;;;;;5034055;28;20105;-58